sensor_id;sensor_type;location;lat;lon;timestamp;pressure;altitude;pressure_sealevel;temperature;humidity
37486;BME280;23341;50.296;18.960;2024-03-17T18:53:32;48047.75;;;-144.43;79.91
37486;BME280;23341;50.296;18.960;2024-03-17T18:56:01;48059.72;;;-144.43;79.84
37486;BME280;23341;50.296;18.960;2024-03-17T18:58:29;48063.72;;;-144.43;79.61
37486;BME280;23341;50.296;18.960;2024-03-17T19:00:57;48059.72;;;-144.43;79.56
37486;BME280;23341;50.296;18.960;2024-03-17T19:03:27;48053.75;;;-144.43;79.63
37486;BME280;23341;50.296;18.960;2024-03-17T19:05:56;48063.72;;;-144.43;80.79
37486;BME280;23341;50.296;18.960;2024-03-17T19:08:27;48103.69;;;-144.43;80.96
37486;BME280;23341;50.296;18.960;2024-03-17T19:11:07;48053.75;;;-144.43;80.21
37486;BME280;23341;50.296;18.960;2024-03-17T19:13:35;48059.72;;;-144.43;80.68
37486;BME280;23341;50.296;18.960;2024-03-17T19:16:05;48063.72;;;-144.43;81.22
37486;BME280;23341;50.296;18.960;2024-03-17T19:18:33;48043.75;;;-144.43;81.15
37486;BME280;23341;50.296;18.960;2024-03-17T19:21:02;48049.75;;;-144.43;83.32
37486;BME280;23341;50.296;18.960;2024-03-17T19:23:30;48051.75;;;-144.43;82.03
37486;BME280;23341;50.296;18.960;2024-03-17T19:26:02;48055.72;;;-144.43;84.49
37486;BME280;23341;50.296;18.960;2024-03-17T19:28:31;48055.72;;;-144.43;88.24
37486;BME280;23341;50.296;18.960;2024-03-17T19:30:59;48065.72;;;-144.43;90.52
37486;BME280;23341;50.296;18.960;2024-03-17T19:33:30;48043.75;;;-144.43;92.96
37486;BME280;23341;50.296;18.960;2024-03-17T19:35:57;48035.75;;;-144.43;94.03
37486;BME280;23341;50.296;18.960;2024-03-17T19:38:25;48075.72;;;-144.43;94.69
37486;BME280;23341;50.296;18.960;2024-03-17T19:40:54;48059.72;;;-144.43;94.64
37486;BME280;23341;50.296;18.960;2024-03-17T19:43:23;48065.72;;;-144.43;94.28
37486;BME280;23341;50.296;18.960;2024-03-17T19:46:02;48035.75;;;-144.43;96.24
37486;BME280;23341;50.296;18.960;2024-03-17T19:48:32;48071.72;;;-144.43;94.25
37486;BME280;23341;50.296;18.960;2024-03-17T19:51:07;48049.75;;;-144.43;93.86
37486;BME280;23341;50.296;18.960;2024-03-17T19:53:37;48047.75;;;-144.43;94.71
37486;BME280;23341;50.296;18.960;2024-03-17T19:56:05;48047.75;;;-144.43;94.43
37486;BME280;23341;50.296;18.960;2024-03-17T19:58:33;48045.75;;;-144.43;93.21
37486;BME280;23341;50.296;18.960;2024-03-17T20:01:03;48057.72;;;-144.43;92.98
37486;BME280;23341;50.296;18.960;2024-03-17T20:03:31;48037.75;;;-144.43;91.89
37486;BME280;23341;50.296;18.960;2024-03-17T20:05:59;48059.72;;;-144.43;88.87
37486;BME280;23341;50.296;18.960;2024-03-17T20:08:27;48049.75;;;-144.43;87.81
37486;BME280;23341;50.296;18.960;2024-03-17T20:10:55;48051.75;;;-144.43;86.95
37486;BME280;23341;50.296;18.960;2024-03-17T20:13:24;48043.75;;;-144.43;88.04
37486;BME280;23341;50.296;18.960;2024-03-17T20:15:52;48051.75;;;-144.43;86.77
37486;BME280;23341;50.296;18.960;2024-03-17T20:18:20;48065.72;;;-144.43;87.46
37486;BME280;23341;50.296;18.960;2024-03-17T20:20:48;48051.75;;;-144.43;87.79
37486;BME280;23341;50.296;18.960;2024-03-17T20:23:16;48055.72;;;-144.43;85.11
37486;BME280;23341;50.296;18.960;2024-03-17T20:25:43;48047.75;;;-144.43;86.35
37486;BME280;23341;50.296;18.960;2024-03-17T20:28:11;48051.75;;;-144.43;86.07
37486;BME280;23341;50.296;18.960;2024-03-17T20:30:39;48045.75;;;-144.43;86.24
37486;BME280;23341;50.296;18.960;2024-03-17T20:33:06;48043.75;;;-144.43;85.86
37486;BME280;23341;50.296;18.960;2024-03-17T20:35:36;48063.72;;;-144.43;86.18
37486;BME280;23341;50.296;18.960;2024-03-17T20:38:04;48053.75;;;-144.43;86.72
37486;BME280;23341;50.296;18.960;2024-03-17T20:40:33;48069.72;;;-144.43;86.97
37486;BME280;23341;50.296;18.960;2024-03-17T20:43:00;48045.75;;;-144.43;87.32
37486;BME280;23341;50.296;18.960;2024-03-17T20:45:28;48047.75;;;-144.43;87.43
37486;BME280;23341;50.296;18.960;2024-03-17T20:47:56;48057.72;;;-144.43;87.70
37486;BME280;23341;50.296;18.960;2024-03-17T20:50:24;48063.72;;;-144.43;89.10
37486;BME280;23341;50.296;18.960;2024-03-17T20:52:53;48035.75;;;-144.43;89.12
37486;BME280;23341;50.296;18.960;2024-03-17T20:55:21;48057.72;;;-144.43;89.41
37486;BME280;23341;50.296;18.960;2024-03-17T20:57:49;48083.72;;;-144.43;89.00
37486;BME280;23341;50.296;18.960;2024-03-17T21:00:18;48061.72;;;-144.43;91.16
37486;BME280;23341;50.296;18.960;2024-03-17T21:02:49;48063.72;;;-144.43;90.72
37486;BME280;23341;50.296;18.960;2024-03-17T21:05:18;48047.75;;;-144.43;91.28
37486;BME280;23341;50.296;18.960;2024-03-17T21:07:46;48051.75;;;-144.43;92.01
37486;BME280;23341;50.296;18.960;2024-03-17T21:10:15;48045.75;;;-144.43;90.10
37486;BME280;23341;50.296;18.960;2024-03-17T21:12:45;48071.72;;;-144.43;90.17
37486;BME280;23341;50.296;18.960;2024-03-17T21:15:12;48037.75;;;-144.43;90.65
37486;BME280;23341;50.296;18.960;2024-03-17T21:17:40;48071.72;;;-144.43;92.50
37486;BME280;23341;50.296;18.960;2024-03-17T21:20:09;48055.72;;;-144.43;94.69
37486;BME280;23341;50.296;18.960;2024-03-17T21:22:39;48043.75;;;-144.43;94.25
37486;BME280;23341;50.296;18.960;2024-03-17T21:25:08;48047.75;;;-144.43;92.18
37486;BME280;23341;50.296;18.960;2024-03-17T21:27:37;48037.75;;;-144.43;92.48
37486;BME280;23341;50.296;18.960;2024-03-17T21:30:10;48063.72;;;-144.43;90.07
37486;BME280;23341;50.296;18.960;2024-03-17T21:32:37;48031.75;;;-144.43;88.45
37486;BME280;23341;50.296;18.960;2024-03-17T21:35:04;48051.75;;;-144.43;88.89
37486;BME280;23341;50.296;18.960;2024-03-17T21:37:32;48031.75;;;-144.43;89.04
37486;BME280;23341;50.296;18.960;2024-03-17T21:39:59;48051.75;;;-144.43;87.72
37486;BME280;23341;50.296;18.960;2024-03-17T21:42:26;48033.75;;;-144.43;86.75
37486;BME280;23341;50.296;18.960;2024-03-17T21:44:55;48041.75;;;-144.43;86.51
37486;BME280;23341;50.296;18.960;2024-03-17T21:47:23;48069.72;;;-144.43;85.50
37486;BME280;23341;50.296;18.960;2024-03-17T21:49:51;48031.75;;;-144.43;85.21
37486;BME280;23341;50.296;18.960;2024-03-17T21:52:18;48053.75;;;-144.43;83.89
37486;BME280;23341;50.296;18.960;2024-03-17T21:54:46;48047.75;;;-144.43;82.86
37486;BME280;23341;50.296;18.960;2024-03-17T21:57:13;48041.75;;;-144.43;82.16
37486;BME280;23341;50.296;18.960;2024-03-17T21:59:40;48045.75;;;-144.43;77.67
37486;BME280;23341;50.296;18.960;2024-03-17T22:02:08;48051.75;;;-144.43;75.39
37486;BME280;23341;50.296;18.960;2024-03-17T22:04:36;48063.72;;;-144.43;73.63
37486;BME280;23341;50.296;18.960;2024-03-17T22:07:03;48045.75;;;-144.43;72.20
37486;BME280;23341;50.296;18.960;2024-03-17T22:09:30;48047.75;;;-144.43;73.01
37486;BME280;23341;50.296;18.960;2024-03-17T22:11:57;48063.72;;;-144.43;72.81
37486;BME280;23341;50.296;18.960;2024-03-17T22:14:25;48007.78;;;-144.43;74.04
37486;BME280;23341;50.296;18.960;2024-03-17T22:16:52;48015.78;;;-144.43;73.77
37486;BME280;23341;50.296;18.960;2024-03-17T22:19:21;48019.78;;;-144.43;73.70
37486;BME280;23341;50.296;18.960;2024-03-17T22:21:48;48043.75;;;-144.43;74.04
37486;BME280;23341;50.296;18.960;2024-03-17T22:24:16;48055.72;;;-144.43;74.24
37486;BME280;23341;50.296;18.960;2024-03-17T22:26:45;48041.75;;;-144.43;74.80
37486;BME280;23341;50.296;18.960;2024-03-17T22:29:12;48005.78;;;-144.43;75.17
37486;BME280;23341;50.296;18.960;2024-03-17T22:31:41;48029.75;;;-144.43;75.16
37486;BME280;23341;50.296;18.960;2024-03-17T22:34:09;48083.72;;;-144.43;75.11
37486;BME280;23341;50.296;18.960;2024-03-17T22:36:37;48023.75;;;-144.43;75.87
37486;BME280;23341;50.296;18.960;2024-03-17T22:39:05;48035.75;;;-144.43;77.12
37486;BME280;23341;50.296;18.960;2024-03-17T22:41:32;48009.78;;;-144.43;76.44
37486;BME280;23341;50.296;18.960;2024-03-17T22:43:59;48025.75;;;-144.43;76.55
37486;BME280;23341;50.296;18.960;2024-03-17T22:46:26;48033.75;;;-144.43;75.97
37486;BME280;23341;50.296;18.960;2024-03-17T22:48:54;48053.75;;;-144.43;76.16
37486;BME280;23341;50.296;18.960;2024-03-17T22:51:21;48047.75;;;-144.43;77.22
37486;BME280;23341;50.296;18.960;2024-03-17T22:53:50;48067.72;;;-144.43;77.63
37486;BME280;23341;50.296;18.960;2024-03-17T22:56:17;48031.75;;;-144.43;76.99
37486;BME280;23341;50.296;18.960;2024-03-17T22:58:45;48021.78;;;-144.43;76.97
37486;BME280;23341;50.296;18.960;2024-03-17T23:01:12;48051.75;;;-144.43;77.94
37486;BME280;23341;50.296;18.960;2024-03-17T23:03:39;48031.75;;;-144.43;78.68
37486;BME280;23341;50.296;18.960;2024-03-17T23:06:07;48055.72;;;-144.43;78.89
37486;BME280;23341;50.296;18.960;2024-03-17T23:08:36;48037.75;;;-144.43;77.84
37486;BME280;23341;50.296;18.960;2024-03-17T23:11:06;48021.78;;;-144.43;79.43
37486;BME280;23341;50.296;18.960;2024-03-17T23:13:35;48027.75;;;-144.43;78.96
37486;BME280;23341;50.296;18.960;2024-03-17T23:16:03;48029.75;;;-144.43;79.49
37486;BME280;23341;50.296;18.960;2024-03-17T23:18:31;48013.78;;;-144.43;80.15
37486;BME280;23341;50.296;18.960;2024-03-17T23:20:58;48023.75;;;-144.43;79.56
37486;BME280;23341;50.296;18.960;2024-03-17T23:23:25;48021.78;;;-144.43;78.25
37486;BME280;23341;50.296;18.960;2024-03-17T23:25:52;48029.75;;;-144.43;79.61
37486;BME280;23341;50.296;18.960;2024-03-17T23:28:21;48007.78;;;-144.43;79.71
37486;BME280;23341;50.296;18.960;2024-03-17T23:30:48;48031.75;;;-144.43;80.67
37486;BME280;23341;50.296;18.960;2024-03-17T23:33:15;48027.75;;;-144.43;80.65
37486;BME280;23341;50.296;18.960;2024-03-17T23:35:46;48033.75;;;-144.43;81.34
37486;BME280;23341;50.296;18.960;2024-03-17T23:38:17;48055.72;;;-144.43;81.32
37486;BME280;23341;50.296;18.960;2024-03-17T23:40:45;48039.75;;;-144.43;81.14
37486;BME280;23341;50.296;18.960;2024-03-17T23:43:12;48043.75;;;-144.43;81.67
37486;BME280;23341;50.296;18.960;2024-03-17T23:45:41;48051.75;;;-144.43;82.10
37486;BME280;23341;50.296;18.960;2024-03-17T23:48:08;48045.75;;;-144.43;81.58
37486;BME280;23341;50.296;18.960;2024-03-17T23:50:35;48025.75;;;-144.43;81.81
37486;BME280;23341;50.296;18.960;2024-03-17T23:53:02;48031.75;;;-144.43;79.78
37486;BME280;23341;50.296;18.960;2024-03-17T23:55:29;48011.78;;;-144.43;82.65
37486;BME280;23341;50.296;18.960;2024-03-17T23:57:57;48041.75;;;-144.43;82.77
